sensor_id;sensor_type;location;lat;lon;timestamp;temperature;humidity
9219;DHT22;4644;48.858;9.184;2023-09-19T00:00:56;17.70;99.90
9219;DHT22;4644;48.858;9.184;2023-09-19T00:03:23;17.60;99.90
9219;DHT22;4644;48.858;9.184;2023-09-19T00:05:52;17.60;99.90
9219;DHT22;4644;48.858;9.184;2023-09-19T00:08:21;17.60;99.90
9219;DHT22;4644;48.858;9.184;2023-09-19T00:10:50;17.60;99.90
9219;DHT22;4644;48.858;9.184;2023-09-19T00:13:19;17.60;99.90
9219;DHT22;4644;48.858;9.184;2023-09-19T00:15:46;17.60;99.90
9219;DHT22;4644;48.858;9.184;2023-09-19T00:18:15;17.60;99.90
9219;DHT22;4644;48.858;9.184;2023-09-19T00:20:43;17.60;99.90
9219;DHT22;4644;48.858;9.184;2023-09-19T00:23:14;17.60;99.90
9219;DHT22;4644;48.858;9.184;2023-09-19T00:25:42;17.60;99.90
9219;DHT22;4644;48.858;9.184;2023-09-19T00:28:09;17.60;99.90
9219;DHT22;4644;48.858;9.184;2023-09-19T00:30:37;17.60;99.90
9219;DHT22;4644;48.858;9.184;2023-09-19T00:33:05;17.60;99.90
9219;DHT22;4644;48.858;9.184;2023-09-19T00:35:33;17.60;99.90
9219;DHT22;4644;48.858;9.184;2023-09-19T00:38:00;17.60;99.90
9219;DHT22;4644;48.858;9.184;2023-09-19T00:40:28;17.50;99.90
9219;DHT22;4644;48.858;9.184;2023-09-19T00:42:58;17.50;99.90
9219;DHT22;4644;48.858;9.184;2023-09-19T00:45:27;17.50;99.90
9219;DHT22;4644;48.858;9.184;2023-09-19T00:47:54;17.50;99.90
9219;DHT22;4644;48.858;9.184;2023-09-19T00:50:24;17.50;99.90
9219;DHT22;4644;48.858;9.184;2023-09-19T00:52:54;17.50;99.90
9219;DHT22;4644;48.858;9.184;2023-09-19T00:55:24;17.50;99.90
9219;DHT22;4644;48.858;9.184;2023-09-19T00:57:53;17.50;99.90
9219;DHT22;4644;48.858;9.184;2023-09-19T01:00:22;17.40;99.90
9219;DHT22;4644;48.858;9.184;2023-09-19T01:02:49;17.40;99.90
9219;DHT22;4644;48.858;9.184;2023-09-19T01:05:16;17.40;99.90
9219;DHT22;4644;48.858;9.184;2023-09-19T01:07:45;17.40;99.90
9219;DHT22;4644;48.858;9.184;2023-09-19T01:10:15;17.50;99.90
9219;DHT22;4644;48.858;9.184;2023-09-19T01:12:55;17.50;99.90
9219;DHT22;4644;48.858;9.184;2023-09-19T01:15:36;17.40;99.90
9219;DHT22;4644;48.858;9.184;2023-09-19T01:18:15;17.40;99.90
9219;DHT22;4644;48.858;9.184;2023-09-19T01:20:50;17.40;99.90
9219;DHT22;4644;48.858;9.184;2023-09-19T01:23:23;17.40;99.90
9219;DHT22;4644;48.858;9.184;2023-09-19T01:26:14;17.40;99.90
9219;DHT22;4644;48.858;9.184;2023-09-19T01:29:06;17.40;99.90
9219;DHT22;4644;48.858;9.184;2023-09-19T01:31:37;17.30;99.90
9219;DHT22;4644;48.858;9.184;2023-09-19T01:34:05;17.30;99.90
9219;DHT22;4644;48.858;9.184;2023-09-19T01:36:34;17.30;99.90
9219;DHT22;4644;48.858;9.184;2023-09-19T01:39:03;17.20;99.90
9219;DHT22;4644;48.858;9.184;2023-09-19T01:44:36;17.20;99.90
9219;DHT22;4644;48.858;9.184;2023-09-19T01:47:17;17.20;99.90
9219;DHT22;4644;48.858;9.184;2023-09-19T01:49:56;17.10;99.90
9219;DHT22;4644;48.858;9.184;2023-09-19T01:52:30;17.10;99.90
9219;DHT22;4644;48.858;9.184;2023-09-19T01:55:06;17.10;99.90
9219;DHT22;4644;48.858;9.184;2023-09-19T01:57:40;17.20;99.90
9219;DHT22;4644;48.858;9.184;2023-09-19T02:00:10;17.10;99.90
9219;DHT22;4644;48.858;9.184;2023-09-19T02:02:43;17.10;99.90
9219;DHT22;4644;48.858;9.184;2023-09-19T02:05:11;17.10;99.90
9219;DHT22;4644;48.858;9.184;2023-09-19T02:07:38;17.10;99.90
9219;DHT22;4644;48.858;9.184;2023-09-19T02:10:07;17.00;99.90
9219;DHT22;4644;48.858;9.184;2023-09-19T02:12:36;17.00;99.90
9219;DHT22;4644;48.858;9.184;2023-09-19T02:15:04;17.00;99.90
9219;DHT22;4644;48.858;9.184;2023-09-19T02:17:32;16.90;99.90
9219;DHT22;4644;48.858;9.184;2023-09-19T02:20:01;16.90;99.90
9219;DHT22;4644;48.858;9.184;2023-09-19T02:22:29;16.90;99.90
9219;DHT22;4644;48.858;9.184;2023-09-19T02:24:56;16.80;99.90
9219;DHT22;4644;48.858;9.184;2023-09-19T02:27:26;16.80;99.90
9219;DHT22;4644;48.858;9.184;2023-09-19T02:29:53;16.80;99.90
9219;DHT22;4644;48.858;9.184;2023-09-19T02:32:20;16.80;99.90
9219;DHT22;4644;48.858;9.184;2023-09-19T02:34:47;16.80;99.90
9219;DHT22;4644;48.858;9.184;2023-09-19T02:37:15;16.80;99.90
9219;DHT22;4644;48.858;9.184;2023-09-19T02:39:44;16.70;99.90
9219;DHT22;4644;48.858;9.184;2023-09-19T02:42:11;16.70;99.90
9219;DHT22;4644;48.858;9.184;2023-09-19T02:44:38;16.60;99.90
9219;DHT22;4644;48.858;9.184;2023-09-19T02:47:06;16.60;99.90
9219;DHT22;4644;48.858;9.184;2023-09-19T02:49:33;16.50;99.90
9219;DHT22;4644;48.858;9.184;2023-09-19T02:52:00;16.50;99.90
9219;DHT22;4644;48.858;9.184;2023-09-19T02:54:30;16.60;99.90
9219;DHT22;4644;48.858;9.184;2023-09-19T02:56:57;16.60;99.90
9219;DHT22;4644;48.858;9.184;2023-09-19T02:59:25;16.60;99.90
9219;DHT22;4644;48.858;9.184;2023-09-19T03:01:54;16.60;99.90
9219;DHT22;4644;48.858;9.184;2023-09-19T03:04:21;16.70;99.90
9219;DHT22;4644;48.858;9.184;2023-09-19T03:06:48;16.70;99.90
9219;DHT22;4644;48.858;9.184;2023-09-19T03:09:16;16.70;99.90
9219;DHT22;4644;48.858;9.184;2023-09-19T03:11:46;16.80;99.90
9219;DHT22;4644;48.858;9.184;2023-09-19T03:14:13;16.80;99.90
9219;DHT22;4644;48.858;9.184;2023-09-19T03:16:41;16.80;99.90
9219;DHT22;4644;48.858;9.184;2023-09-19T03:19:10;16.80;99.90
9219;DHT22;4644;48.858;9.184;2023-09-19T03:21:37;16.80;99.90
9219;DHT22;4644;48.858;9.184;2023-09-19T03:24:05;16.80;99.90
9219;DHT22;4644;48.858;9.184;2023-09-19T03:26:32;16.80;99.90
9219;DHT22;4644;48.858;9.184;2023-09-19T03:29:03;16.80;99.90
9219;DHT22;4644;48.858;9.184;2023-09-19T03:31:33;16.80;99.90
9219;DHT22;4644;48.858;9.184;2023-09-19T03:34:02;16.80;99.90
9219;DHT22;4644;48.858;9.184;2023-09-19T03:36:30;16.80;99.90
9219;DHT22;4644;48.858;9.184;2023-09-19T03:38:57;16.80;99.90
9219;DHT22;4644;48.858;9.184;2023-09-19T03:41:24;16.80;99.90
9219;DHT22;4644;48.858;9.184;2023-09-19T03:43:51;16.80;99.90
9219;DHT22;4644;48.858;9.184;2023-09-19T03:46:20;16.90;99.90
9219;DHT22;4644;48.858;9.184;2023-09-19T03:48:47;16.80;99.90
9219;DHT22;4644;48.858;9.184;2023-09-19T03:51:14;16.80;99.90
9219;DHT22;4644;48.858;9.184;2023-09-19T03:53:41;16.70;99.90
9219;DHT22;4644;48.858;9.184;2023-09-19T03:56:08;16.60;99.90
9219;DHT22;4644;48.858;9.184;2023-09-19T03:58:35;16.50;99.90
9219;DHT22;4644;48.858;9.184;2023-09-19T04:01:05;16.40;99.90
9219;DHT22;4644;48.858;9.184;2023-09-19T04:03:33;16.30;99.90
9219;DHT22;4644;48.858;9.184;2023-09-19T04:06:11;16.20;99.90
9219;DHT22;4644;48.858;9.184;2023-09-19T04:08:38;16.20;99.90
9219;DHT22;4644;48.858;9.184;2023-09-19T04:11:05;16.10;99.90
9219;DHT22;4644;48.858;9.184;2023-09-19T04:13:33;16.10;99.90
9219;DHT22;4644;48.858;9.184;2023-09-19T04:16:00;16.10;99.90
9219;DHT22;4644;48.858;9.184;2023-09-19T04:18:27;16.10;99.90
9219;DHT22;4644;48.858;9.184;2023-09-19T04:20:58;16.10;99.90
9219;DHT22;4644;48.858;9.184;2023-09-19T04:23:25;16.10;99.90
9219;DHT22;4644;48.858;9.184;2023-09-19T04:25:53;16.10;99.90
9219;DHT22;4644;48.858;9.184;2023-09-19T04:28:20;16.10;99.90
9219;DHT22;4644;48.858;9.184;2023-09-19T04:30:47;16.10;99.90
9219;DHT22;4644;48.858;9.184;2023-09-19T04:33:14;16.10;99.90
9219;DHT22;4644;48.858;9.184;2023-09-19T04:35:41;16.10;99.90
9219;DHT22;4644;48.858;9.184;2023-09-19T04:38:11;16.10;99.90
9219;DHT22;4644;48.858;9.184;2023-09-19T04:40:39;16.10;99.90
9219;DHT22;4644;48.858;9.184;2023-09-19T04:43:06;16.10;99.90
9219;DHT22;4644;48.858;9.184;2023-09-19T04:45:33;16.20;99.90
9219;DHT22;4644;48.858;9.184;2023-09-19T04:48:00;16.20;99.90
9219;DHT22;4644;48.858;9.184;2023-09-19T04:50:28;16.20;99.90
9219;DHT22;4644;48.858;9.184;2023-09-19T04:52:55;16.20;99.90
9219;DHT22;4644;48.858;9.184;2023-09-19T04:55:23;16.20;99.90
9219;DHT22;4644;48.858;9.184;2023-09-19T04:57:52;16.20;99.90
9219;DHT22;4644;48.858;9.184;2023-09-19T05:00:20;16.10;99.90
9219;DHT22;4644;48.858;9.184;2023-09-19T05:02:50;16.10;99.90
9219;DHT22;4644;48.858;9.184;2023-09-19T05:05:17;16.10;99.90
9219;DHT22;4644;48.858;9.184;2023-09-19T05:07:45;16.10;99.90
9219;DHT22;4644;48.858;9.184;2023-09-19T05:10:12;16.10;99.90
9219;DHT22;4644;48.858;9.184;2023-09-19T05:12:41;16.10;99.90
9219;DHT22;4644;48.858;9.184;2023-09-19T05:15:10;16.10;99.90
9219;DHT22;4644;48.858;9.184;2023-09-19T05:17:38;16.10;99.90
9219;DHT22;4644;48.858;9.184;2023-09-19T05:20:06;16.00;99.90
9219;DHT22;4644;48.858;9.184;2023-09-19T05:22:46;16.00;99.90
9219;DHT22;4644;48.858;9.184;2023-09-19T05:25:13;16.00;99.90
9219;DHT22;4644;48.858;9.184;2023-09-19T05:27:45;16.00;99.90
9219;DHT22;4644;48.858;9.184;2023-09-19T05:30:13;16.00;99.90
9219;DHT22;4644;48.858;9.184;2023-09-19T05:32:41;16.00;99.90
9219;DHT22;4644;48.858;9.184;2023-09-19T05:35:09;16.00;99.90
9219;DHT22;4644;48.858;9.184;2023-09-19T05:37:38;15.90;99.90
9219;DHT22;4644;48.858;9.184;2023-09-19T05:40:06;15.90;99.90
9219;DHT22;4644;48.858;9.184;2023-09-19T05:42:36;15.90;99.90
9219;DHT22;4644;48.858;9.184;2023-09-19T05:45:06;15.80;99.90
9219;DHT22;4644;48.858;9.184;2023-09-19T05:47:33;15.70;99.90
9219;DHT22;4644;48.858;9.184;2023-09-19T05:50:00;15.70;99.90
9219;DHT22;4644;48.858;9.184;2023-09-19T05:52:28;15.60;99.90
9219;DHT22;4644;48.858;9.184;2023-09-19T05:54:55;15.60;99.90
9219;DHT22;4644;48.858;9.184;2023-09-19T05:57:23;15.50;99.90
9219;DHT22;4644;48.858;9.184;2023-09-19T05:59:50;15.50;99.90
9219;DHT22;4644;48.858;9.184;2023-09-19T06:02:18;15.50;99.90
9219;DHT22;4644;48.858;9.184;2023-09-19T06:04:45;15.40;99.90
9219;DHT22;4644;48.858;9.184;2023-09-19T06:07:12;15.30;99.90
9219;DHT22;4644;48.858;9.184;2023-09-19T06:09:40;15.20;99.90
9219;DHT22;4644;48.858;9.184;2023-09-19T06:12:08;15.10;99.90
9219;DHT22;4644;48.858;9.184;2023-09-19T06:14:35;15.00;99.90
9219;DHT22;4644;48.858;9.184;2023-09-19T06:17:02;14.90;99.90
9219;DHT22;4644;48.858;9.184;2023-09-19T06:19:30;14.80;99.90
9219;DHT22;4644;48.858;9.184;2023-09-19T06:21:58;14.80;99.90
9219;DHT22;4644;48.858;9.184;2023-09-19T06:24:25;14.70;99.90
9219;DHT22;4644;48.858;9.184;2023-09-19T06:26:52;14.80;99.90
9219;DHT22;4644;48.858;9.184;2023-09-19T06:29:20;14.80;99.90
9219;DHT22;4644;48.858;9.184;2023-09-19T06:31:48;14.80;99.90
9219;DHT22;4644;48.858;9.184;2023-09-19T06:34:16;14.90;99.90
9219;DHT22;4644;48.858;9.184;2023-09-19T06:36:45;14.90;99.90
9219;DHT22;4644;48.858;9.184;2023-09-19T06:39:12;15.00;99.90
9219;DHT22;4644;48.858;9.184;2023-09-19T06:41:39;15.10;99.90
9219;DHT22;4644;48.858;9.184;2023-09-19T06:44:07;15.10;99.90
9219;DHT22;4644;48.858;9.184;2023-09-19T06:46:35;15.20;99.90
9219;DHT22;4644;48.858;9.184;2023-09-19T06:49:05;15.30;99.90
9219;DHT22;4644;48.858;9.184;2023-09-19T06:51:32;15.40;99.90
9219;DHT22;4644;48.858;9.184;2023-09-19T06:54:01;15.40;99.90
9219;DHT22;4644;48.858;9.184;2023-09-19T06:56:30;15.50;99.90
9219;DHT22;4644;48.858;9.184;2023-09-19T06:58:57;15.60;99.90
9219;DHT22;4644;48.858;9.184;2023-09-19T07:01:24;15.70;99.90
9219;DHT22;4644;48.858;9.184;2023-09-19T07:03:51;15.90;99.90
9219;DHT22;4644;48.858;9.184;2023-09-19T07:06:18;16.10;99.90
9219;DHT22;4644;48.858;9.184;2023-09-19T07:08:46;16.20;99.90
9219;DHT22;4644;48.858;9.184;2023-09-19T07:11:15;16.30;99.90
9219;DHT22;4644;48.858;9.184;2023-09-19T07:13:43;16.40;99.90
9219;DHT22;4644;48.858;9.184;2023-09-19T07:16:10;16.40;99.90
9219;DHT22;4644;48.858;9.184;2023-09-19T07:18:52;16.50;99.90
9219;DHT22;4644;48.858;9.184;2023-09-19T07:21:19;16.60;99.90
9219;DHT22;4644;48.858;9.184;2023-09-19T07:23:47;16.60;99.90
9219;DHT22;4644;48.858;9.184;2023-09-19T07:26:16;16.60;99.90
9219;DHT22;4644;48.858;9.184;2023-09-19T07:28:43;16.60;99.90
9219;DHT22;4644;48.858;9.184;2023-09-19T07:31:10;16.60;99.90
9219;DHT22;4644;48.858;9.184;2023-09-19T07:33:40;16.60;99.90
9219;DHT22;4644;48.858;9.184;2023-09-19T07:36:10;16.70;99.90
9219;DHT22;4644;48.858;9.184;2023-09-19T07:38:39;16.70;99.90
9219;DHT22;4644;48.858;9.184;2023-09-19T07:41:06;16.80;99.90
9219;DHT22;4644;48.858;9.184;2023-09-19T07:43:36;16.90;99.90
9219;DHT22;4644;48.858;9.184;2023-09-19T07:46:05;17.00;99.90
9219;DHT22;4644;48.858;9.184;2023-09-19T07:48:34;17.10;99.90
9219;DHT22;4644;48.858;9.184;2023-09-19T07:51:03;17.20;99.90
9219;DHT22;4644;48.858;9.184;2023-09-19T07:53:31;17.30;99.90
9219;DHT22;4644;48.858;9.184;2023-09-19T07:56:04;17.40;99.90
9219;DHT22;4644;48.858;9.184;2023-09-19T07:58:31;17.60;99.90
9219;DHT22;4644;48.858;9.184;2023-09-19T08:01:10;17.50;99.90
9219;DHT22;4644;48.858;9.184;2023-09-19T08:03:39;17.50;99.90
9219;DHT22;4644;48.858;9.184;2023-09-19T08:06:07;17.40;99.90
9219;DHT22;4644;48.858;9.184;2023-09-19T08:08:35;17.40;99.90
9219;DHT22;4644;48.858;9.184;2023-09-19T08:11:03;17.50;99.90
9219;DHT22;4644;48.858;9.184;2023-09-19T08:13:36;17.60;99.90
9219;DHT22;4644;48.858;9.184;2023-09-19T08:16:08;17.70;99.90
9219;DHT22;4644;48.858;9.184;2023-09-19T08:18:35;17.80;99.90
9219;DHT22;4644;48.858;9.184;2023-09-19T08:21:03;17.90;99.90
9219;DHT22;4644;48.858;9.184;2023-09-19T08:23:30;18.00;99.90
9219;DHT22;4644;48.858;9.184;2023-09-19T08:25:57;18.10;99.90
9219;DHT22;4644;48.858;9.184;2023-09-19T08:28:27;18.10;99.90
9219;DHT22;4644;48.858;9.184;2023-09-19T08:30:55;18.40;99.90
9219;DHT22;4644;48.858;9.184;2023-09-19T08:33:25;18.40;99.90
9219;DHT22;4644;48.858;9.184;2023-09-19T08:35:55;18.60;99.90
9219;DHT22;4644;48.858;9.184;2023-09-19T08:38:22;18.70;99.90
9219;DHT22;4644;48.858;9.184;2023-09-19T08:40:51;18.80;99.90
9219;DHT22;4644;48.858;9.184;2023-09-19T08:43:21;18.90;99.90
9219;DHT22;4644;48.858;9.184;2023-09-19T08:45:49;19.00;99.90
9219;DHT22;4644;48.858;9.184;2023-09-19T08:48:22;19.10;99.90
9219;DHT22;4644;48.858;9.184;2023-09-19T08:50:54;19.00;99.90
9219;DHT22;4644;48.858;9.184;2023-09-19T08:53:30;19.10;99.90
9219;DHT22;4644;48.858;9.184;2023-09-19T08:56:00;19.20;99.90
9219;DHT22;4644;48.858;9.184;2023-09-19T08:58:31;19.30;99.90
9219;DHT22;4644;48.858;9.184;2023-09-19T09:01:01;19.50;99.90
9219;DHT22;4644;48.858;9.184;2023-09-19T09:03:32;19.40;99.90
9219;DHT22;4644;48.858;9.184;2023-09-19T09:06:01;19.30;99.90
9219;DHT22;4644;48.858;9.184;2023-09-19T09:08:30;19.30;99.90
9219;DHT22;4644;48.858;9.184;2023-09-19T09:10:58;19.20;99.90
9219;DHT22;4644;48.858;9.184;2023-09-19T09:13:26;19.30;99.90
9219;DHT22;4644;48.858;9.184;2023-09-19T09:15:53;19.50;99.90
9219;DHT22;4644;48.858;9.184;2023-09-19T09:18:23;19.60;99.90
9219;DHT22;4644;48.858;9.184;2023-09-19T09:20:50;19.80;99.90
9219;DHT22;4644;48.858;9.184;2023-09-19T09:23:18;19.90;99.90
9219;DHT22;4644;48.858;9.184;2023-09-19T09:25:48;20.00;99.90
9219;DHT22;4644;48.858;9.184;2023-09-19T09:28:19;20.00;99.90
9219;DHT22;4644;48.858;9.184;2023-09-19T09:30:47;19.90;99.90
9219;DHT22;4644;48.858;9.184;2023-09-19T09:33:14;19.80;99.90
9219;DHT22;4644;48.858;9.184;2023-09-19T09:35:49;20.10;99.90
9219;DHT22;4644;48.858;9.184;2023-09-19T09:38:20;20.40;99.90
9219;DHT22;4644;48.858;9.184;2023-09-19T09:40:48;20.50;99.90
9219;DHT22;4644;48.858;9.184;2023-09-19T09:43:26;20.60;99.90
9219;DHT22;4644;48.858;9.184;2023-09-19T09:46:07;20.90;99.90
9219;DHT22;4644;48.858;9.184;2023-09-19T09:49:00;21.00;99.90
9219;DHT22;4644;48.858;9.184;2023-09-19T09:51:48;21.00;99.90
9219;DHT22;4644;48.858;9.184;2023-09-19T09:54:25;21.10;99.90
9219;DHT22;4644;48.858;9.184;2023-09-19T09:56:57;21.20;99.90
9219;DHT22;4644;48.858;9.184;2023-09-19T09:59:44;21.20;99.90
9219;DHT22;4644;48.858;9.184;2023-09-19T10:02:13;20.80;99.90
9219;DHT22;4644;48.858;9.184;2023-09-19T10:04:46;20.90;99.90
9219;DHT22;4644;48.858;9.184;2023-09-19T10:07:25;20.90;99.90
9219;DHT22;4644;48.858;9.184;2023-09-19T10:09:59;20.90;99.90
9219;DHT22;4644;48.858;9.184;2023-09-19T10:12:38;21.00;99.90
9219;DHT22;4644;48.858;9.184;2023-09-19T10:15:07;21.00;99.90
9219;DHT22;4644;48.858;9.184;2023-09-19T10:17:36;21.00;99.90
9219;DHT22;4644;48.858;9.184;2023-09-19T10:20:06;20.90;99.90
9219;DHT22;4644;48.858;9.184;2023-09-19T10:22:46;20.80;99.90
9219;DHT22;4644;48.858;9.184;2023-09-19T10:25:25;20.90;99.90
9219;DHT22;4644;48.858;9.184;2023-09-19T10:27:54;20.90;99.90
9219;DHT22;4644;48.858;9.184;2023-09-19T10:30:24;21.10;99.90
9219;DHT22;4644;48.858;9.184;2023-09-19T10:32:57;21.30;99.90
9219;DHT22;4644;48.858;9.184;2023-09-19T10:35:25;21.40;99.90
9219;DHT22;4644;48.858;9.184;2023-09-19T10:37:55;21.50;99.90
9219;DHT22;4644;48.858;9.184;2023-09-19T10:40:25;21.40;99.90
9219;DHT22;4644;48.858;9.184;2023-09-19T10:43:01;21.40;99.90
9219;DHT22;4644;48.858;9.184;2023-09-19T10:45:31;21.30;99.90
9219;DHT22;4644;48.858;9.184;2023-09-19T10:47:59;21.30;99.90
9219;DHT22;4644;48.858;9.184;2023-09-19T10:50:28;21.40;99.90
9219;DHT22;4644;48.858;9.184;2023-09-19T10:53:00;21.40;99.90
9219;DHT22;4644;48.858;9.184;2023-09-19T10:55:32;21.30;99.90
9219;DHT22;4644;48.858;9.184;2023-09-19T10:58:02;21.30;99.90
9219;DHT22;4644;48.858;9.184;2023-09-19T11:00:51;21.20;99.90
9219;DHT22;4644;48.858;9.184;2023-09-19T11:03:20;21.10;99.90
9219;DHT22;4644;48.858;9.184;2023-09-19T11:06:09;21.00;99.90
9219;DHT22;4644;48.858;9.184;2023-09-19T11:08:58;21.00;99.90
9219;DHT22;4644;48.858;9.184;2023-09-19T11:11:48;21.10;99.90
9219;DHT22;4644;48.858;9.184;2023-09-19T11:14:40;21.10;99.90
9219;DHT22;4644;48.858;9.184;2023-09-19T11:17:41;21.10;99.90
9219;DHT22;4644;48.858;9.184;2023-09-19T11:20:24;21.40;99.90
9219;DHT22;4644;48.858;9.184;2023-09-19T11:23:23;21.50;99.90
9219;DHT22;4644;48.858;9.184;2023-09-19T11:25:52;21.60;99.90
9219;DHT22;4644;48.858;9.184;2023-09-19T11:28:33;21.70;99.90
9219;DHT22;4644;48.858;9.184;2023-09-19T11:31:41;21.60;99.90
9219;DHT22;4644;48.858;9.184;2023-09-19T11:40:45;22.00;99.90
9219;DHT22;4644;48.858;9.184;2023-09-19T11:43:34;22.20;99.90
9219;DHT22;4644;48.858;9.184;2023-09-19T11:46:05;22.20;99.90
9219;DHT22;4644;48.858;9.184;2023-09-19T11:48:33;21.90;99.90
9219;DHT22;4644;48.858;9.184;2023-09-19T11:51:13;21.70;99.90
9219;DHT22;4644;48.858;9.184;2023-09-19T11:53:45;21.60;99.90
9219;DHT22;4644;48.858;9.184;2023-09-19T11:56:15;21.60;99.90
9219;DHT22;4644;48.858;9.184;2023-09-19T11:58:44;21.60;99.90
9219;DHT22;4644;48.858;9.184;2023-09-19T12:01:16;21.60;99.90
9219;DHT22;4644;48.858;9.184;2023-09-19T12:03:53;21.70;99.90
9219;DHT22;4644;48.858;9.184;2023-09-19T12:06:23;21.60;99.90
9219;DHT22;4644;48.858;9.184;2023-09-19T12:08:50;21.50;99.90
9219;DHT22;4644;48.858;9.184;2023-09-19T12:11:20;21.40;99.90
9219;DHT22;4644;48.858;9.184;2023-09-19T12:13:50;21.50;99.90
9219;DHT22;4644;48.858;9.184;2023-09-19T12:16:19;21.40;99.90
9219;DHT22;4644;48.858;9.184;2023-09-19T12:18:49;21.60;99.90
9219;DHT22;4644;48.858;9.184;2023-09-19T12:21:24;21.60;99.90
9219;DHT22;4644;48.858;9.184;2023-09-19T12:24:12;21.50;99.90
9219;DHT22;4644;48.858;9.184;2023-09-19T12:26:40;21.40;99.90
9219;DHT22;4644;48.858;9.184;2023-09-19T12:29:12;21.30;99.90
9219;DHT22;4644;48.858;9.184;2023-09-19T12:31:48;21.40;99.90
9219;DHT22;4644;48.858;9.184;2023-09-19T12:34:19;21.30;99.90
9219;DHT22;4644;48.858;9.184;2023-09-19T12:36:46;21.50;99.90
9219;DHT22;4644;48.858;9.184;2023-09-19T12:39:23;21.50;99.60
9219;DHT22;4644;48.858;9.184;2023-09-19T12:41:52;21.50;99.90
9219;DHT22;4644;48.858;9.184;2023-09-19T12:44:21;21.50;99.60
9219;DHT22;4644;48.858;9.184;2023-09-19T12:46:50;21.50;99.20
9219;DHT22;4644;48.858;9.184;2023-09-19T12:49:20;21.40;98.40
9219;DHT22;4644;48.858;9.184;2023-09-19T12:51:49;21.50;99.90
9219;DHT22;4644;48.858;9.184;2023-09-19T12:54:16;21.50;98.20
9219;DHT22;4644;48.858;9.184;2023-09-19T12:56:45;21.60;98.90
9219;DHT22;4644;48.858;9.184;2023-09-19T12:59:15;21.60;98.60
9219;DHT22;4644;48.858;9.184;2023-09-19T13:01:43;21.60;97.50
9219;DHT22;4644;48.858;9.184;2023-09-19T13:04:16;21.50;97.30
9219;DHT22;4644;48.858;9.184;2023-09-19T13:06:46;21.50;97.60
9219;DHT22;4644;48.858;9.184;2023-09-19T13:09:15;21.50;98.70
9219;DHT22;4644;48.858;9.184;2023-09-19T13:11:43;21.50;98.90
9219;DHT22;4644;48.858;9.184;2023-09-19T13:14:18;21.60;98.60
9219;DHT22;4644;48.858;9.184;2023-09-19T13:16:58;21.60;97.70
9219;DHT22;4644;48.858;9.184;2023-09-19T13:19:39;21.50;96.70
9219;DHT22;4644;48.858;9.184;2023-09-19T13:22:37;21.50;98.60
9219;DHT22;4644;48.858;9.184;2023-09-19T13:25:07;21.60;97.20
9219;DHT22;4644;48.858;9.184;2023-09-19T13:27:39;21.70;97.80
9219;DHT22;4644;48.858;9.184;2023-09-19T13:30:07;21.70;96.90
9219;DHT22;4644;48.858;9.184;2023-09-19T13:32:36;21.80;97.40
9219;DHT22;4644;48.858;9.184;2023-09-19T13:35:05;22.00;97.70
9219;DHT22;4644;48.858;9.184;2023-09-19T13:37:34;22.10;97.40
9219;DHT22;4644;48.858;9.184;2023-09-19T13:40:07;22.30;97.80
9219;DHT22;4644;48.858;9.184;2023-09-19T13:42:35;22.40;96.40
9219;DHT22;4644;48.858;9.184;2023-09-19T13:45:02;22.50;95.90
9219;DHT22;4644;48.858;9.184;2023-09-19T13:47:30;22.60;95.80
9219;DHT22;4644;48.858;9.184;2023-09-19T13:50:01;22.60;95.60
9219;DHT22;4644;48.858;9.184;2023-09-19T13:52:30;22.70;94.80
9219;DHT22;4644;48.858;9.184;2023-09-19T13:54:57;22.80;95.10
9219;DHT22;4644;48.858;9.184;2023-09-19T13:57:25;22.90;94.60
9219;DHT22;4644;48.858;9.184;2023-09-19T13:59:52;22.80;94.70
9219;DHT22;4644;48.858;9.184;2023-09-19T14:02:20;22.50;94.90
9219;DHT22;4644;48.858;9.184;2023-09-19T14:04:48;22.60;95.10
9219;DHT22;4644;48.858;9.184;2023-09-19T14:07:16;22.70;95.30
9219;DHT22;4644;48.858;9.184;2023-09-19T14:09:45;22.80;94.60
9219;DHT22;4644;48.858;9.184;2023-09-19T14:12:12;22.90;95.10
9219;DHT22;4644;48.858;9.184;2023-09-19T14:14:39;23.00;95.30
9219;DHT22;4644;48.858;9.184;2023-09-19T14:17:06;23.10;94.10
9219;DHT22;4644;48.858;9.184;2023-09-19T14:19:34;23.00;93.40
9219;DHT22;4644;48.858;9.184;2023-09-19T14:22:02;22.80;94.90
9219;DHT22;4644;48.858;9.184;2023-09-19T14:24:34;22.80;96.10
9219;DHT22;4644;48.858;9.184;2023-09-19T14:27:01;22.70;94.60
9219;DHT22;4644;48.858;9.184;2023-09-19T14:29:30;22.70;94.50
9219;DHT22;4644;48.858;9.184;2023-09-19T14:31:57;22.70;93.00
9219;DHT22;4644;48.858;9.184;2023-09-19T14:34:24;22.60;92.60
9219;DHT22;4644;48.858;9.184;2023-09-19T14:36:51;22.70;94.40
9219;DHT22;4644;48.858;9.184;2023-09-19T14:39:19;22.60;94.40
9219;DHT22;4644;48.858;9.184;2023-09-19T14:41:47;22.60;94.30
9219;DHT22;4644;48.858;9.184;2023-09-19T14:44:14;22.60;94.60
9219;DHT22;4644;48.858;9.184;2023-09-19T14:46:41;22.80;94.30
9219;DHT22;4644;48.858;9.184;2023-09-19T14:49:09;22.90;93.30
9219;DHT22;4644;48.858;9.184;2023-09-19T14:51:37;22.90;93.20
9219;DHT22;4644;48.858;9.184;2023-09-19T14:54:05;22.90;92.80
9219;DHT22;4644;48.858;9.184;2023-09-19T14:56:33;22.80;92.90
9219;DHT22;4644;48.858;9.184;2023-09-19T14:59:01;22.80;92.60
9219;DHT22;4644;48.858;9.184;2023-09-19T15:01:29;22.70;92.60
9219;DHT22;4644;48.858;9.184;2023-09-19T15:03:57;22.60;92.30
9219;DHT22;4644;48.858;9.184;2023-09-19T15:06:26;22.60;92.40
9219;DHT22;4644;48.858;9.184;2023-09-19T15:08:53;22.60;92.80
9219;DHT22;4644;48.858;9.184;2023-09-19T15:11:20;22.60;92.20
9219;DHT22;4644;48.858;9.184;2023-09-19T15:13:51;22.60;91.80
9219;DHT22;4644;48.858;9.184;2023-09-19T15:16:19;22.50;91.70
9219;DHT22;4644;48.858;9.184;2023-09-19T15:18:46;22.50;92.00
9219;DHT22;4644;48.858;9.184;2023-09-19T15:21:15;22.40;91.90
9219;DHT22;4644;48.858;9.184;2023-09-19T15:23:42;22.30;92.60
9219;DHT22;4644;48.858;9.184;2023-09-19T15:26:12;22.30;92.20
9219;DHT22;4644;48.858;9.184;2023-09-19T15:28:40;22.20;92.80
9219;DHT22;4644;48.858;9.184;2023-09-19T15:31:08;22.20;92.40
9219;DHT22;4644;48.858;9.184;2023-09-19T15:33:38;22.30;92.70
9219;DHT22;4644;48.858;9.184;2023-09-19T15:36:06;22.30;92.20
9219;DHT22;4644;48.858;9.184;2023-09-19T15:38:58;22.40;92.80
9219;DHT22;4644;48.858;9.184;2023-09-19T15:41:26;22.40;92.00
9219;DHT22;4644;48.858;9.184;2023-09-19T15:43:53;22.30;91.70
9219;DHT22;4644;48.858;9.184;2023-09-19T15:46:20;22.30;91.40
9219;DHT22;4644;48.858;9.184;2023-09-19T15:48:49;22.20;91.80
9219;DHT22;4644;48.858;9.184;2023-09-19T15:51:16;22.20;92.20
9219;DHT22;4644;48.858;9.184;2023-09-19T15:53:45;22.10;91.30
9219;DHT22;4644;48.858;9.184;2023-09-19T15:56:12;22.00;91.30
9219;DHT22;4644;48.858;9.184;2023-09-19T15:58:40;22.00;91.80
9219;DHT22;4644;48.858;9.184;2023-09-19T16:01:07;22.00;91.60
9219;DHT22;4644;48.858;9.184;2023-09-19T16:03:36;21.90;91.60
9219;DHT22;4644;48.858;9.184;2023-09-19T16:06:09;21.80;91.80
9219;DHT22;4644;48.858;9.184;2023-09-19T16:08:39;21.80;92.10
9219;DHT22;4644;48.858;9.184;2023-09-19T16:11:06;21.70;92.40
9219;DHT22;4644;48.858;9.184;2023-09-19T16:13:34;21.70;92.60
9219;DHT22;4644;48.858;9.184;2023-09-19T16:16:01;21.60;93.20
9219;DHT22;4644;48.858;9.184;2023-09-19T16:18:28;21.60;93.10
9219;DHT22;4644;48.858;9.184;2023-09-19T16:21:01;21.60;92.90
9219;DHT22;4644;48.858;9.184;2023-09-19T16:23:30;21.60;93.60
9219;DHT22;4644;48.858;9.184;2023-09-19T16:26:01;21.50;93.30
9219;DHT22;4644;48.858;9.184;2023-09-19T16:28:30;21.50;93.50
9219;DHT22;4644;48.858;9.184;2023-09-19T16:30:58;21.50;93.60